Announcements:A NEW WEATHER STATION HAS BEEN ORDERED!!!!!
The rain gauge is not working and precipitation will be manually updated. Email Mr. Reynolds

Nearby METAR Reports

 

KMIC - Crystal, Minnesota, USA
Distance from station: N 7mi, 16km
Updated: Sun, 06/23/2024 10:53pm CDT
Clear
Clear
 Wind from calm
Wind: Calm
Temperature: 70°F, 21°C
Dew Point: 59°F, 15°C
Humidity: 69%
Barometer: 29.87 inHg, 1011.5 hPa
Clouds: Clear
Visibility: 10 miles, 16 km
2024/06/24 03:53 KMIC 240353Z AUTO 00000KT 10SM CLR 21/15 A2987 RMK AO2 SLP111 T02060150
KANE - Anoka-Blaine, Minnesota, USA
Distance from station: NE 16mi, 27km
Updated: Sun, 06/23/2024 11:35pm CDT
Clear
Clear
 Wind from calm
Wind: Calm
Temperature: 66°F, 19°C
Dew Point: 61°F, 16°C
Humidity: 83%
Barometer: 29.89 inHg, 1012.2 hPa
Clouds: Clear
Visibility: 10 miles, 16 km
2024/06/24 04:35 KANE 240435Z AUTO 00000KT 10SM CLR 19/16 A2989 RMK AO2
KFCM - Flying Cloud-Eden Prairie, Minnesota, USA
Distance from station: SW 17mi, 28km
Updated: Sun, 06/23/2024 10:53pm CDT
Clear
Clear
 Wind from W
Wind: W 3 mph, 6 km/h
Temperature: 72°F, 22°C
Dew Point: 61°F, 16°C
Humidity: 69%
Barometer: 29.87 inHg, 1011.5 hPa
Clouds: Clear
Visibility: 10 miles, 16 km
2024/06/24 03:53 KFCM 240353Z AUTO 26003KT 10SM CLR 22/16 A2987 RMK AO2 SLP112 T02220161
 
KMSP - Minneapolis-St. Paul, Minnesota, USA
Distance from station: SE 16mi, 27km
Updated: Sun, 06/23/2024 10:53pm CDT
Clear
Clear
 Wind from W
Wind: W 3 mph, 6 km/h
Temperature: 73°F, 23°C
Dew Point: 61°F, 16°C
Humidity: 65%
Barometer: 29.88 inHg, 1011.9 hPa
Clouds: Clear
Visibility: 10 miles, 16 km
2024/06/24 03:53 KMSP 240353Z 28003KT 10SM CLR 23/16 A2988 RMK AO2 SLP114 T02280156
KRST - Rochester, Minnesota, USA
Distance from station: SE 99mi, 159km
Updated: Sun, 06/23/2024 10:54pm CDT
Clear
Clear
 Wind from WSW
Wind: WSW 7 mph, 11 km/h
Temperature: 66°F, 19°C
Dew Point: 61°F, 16°C
Humidity: 83%
Barometer: 29.91 inHg, 1012.9 hPa
Clouds: Clear
Visibility: 10 miles, 16 km
2024/06/24 03:54 KRST 240354Z 24006KT 10SM CLR 19/16 A2991 RMK AO2 SLP125 T01890161
KSGS - Fleming/St Paul, Minnesota, USA
Distance from station: E 23mi, 37km
Updated: Sun, 06/23/2024 11:35pm CDT
Clear
Clear
 Wind from calm
Wind: Calm
Temperature: 68°F, 20°C
Dew Point: 63°F, 17°C
Humidity: 83%
Barometer: 29.89 inHg, 1012.2 hPa
Clouds: Clear
Visibility: 10 miles, 16 km
2024/06/24 04:35 KSGS 240435Z AUTO 00000KT 10SM CLR 20/17 A2989 RMK AO2 T02020167
 
KDLH - Duluth, Minnesota, USA
Distance from station: NNE 164mi, 265km
Updated: Sun, 06/23/2024 10:55pm CDT
Clear
Clear
 Wind from ESE
Wind: ESE 3 mph, 6 km/h
Temperature: 61°F, 16°C
Dew Point: 52°F, 11°C
Humidity: 72%
Barometer: 29.90 inHg, 1012.5 hPa
Clouds: Clear
Visibility: 10 miles, 16 km
2024/06/24 03:55 KDLH 240355Z 11003KT 10SM CLR 16/11 A2990 RMK AO2 SLP126 T01560111
KBRD - Brainard, Minnesota, USA
Distance from station: NNW 127mi, 25km
Updated: Sun, 06/23/2024 10:53pm CDT
Clear
Clear
 Wind from calm
Wind: Calm
Temperature: 61°F, 16°C
Dew Point: 57°F, 14°C
Humidity: 88%
Barometer: 29.89 inHg, 1012.2 hPa
Clouds: Clear
Visibility: 10 miles, 16 km
2024/06/24 03:53 KBRD 240353Z AUTO 00000KT 10SM CLR 16/14 A2989 RMK AO2 SLP118 T01610144